Time;durP1;ratioP1;P1;durP2;ratioP2;P2;SDS_P1;SDS_P2;PMS_P1;PMS_P2;Temp;Humidity;BMP_temperature;BMP_pressure;BME280_temperature;BME280_humidity;BME280_pressure;Samples;Min_cycle;Max_cycle;Signal;HPM_P1;HPM_P2
2023/04/01 00:00:08;;;;;;;;;;;;;;;;;;5093552;28;872;-71
2023/04/01 00:02:33;;;;;;;;;;;;;;;;;;5092171;28;1973;-71
2023/04/01 00:04:58;;;;;;;;;;;;;;;;;;5093575;28;1054;-71
2023/04/01 00:07:24;;;;;;;;;;;;;;;;;;5092408;28;1199;-70
2023/04/01 00:09:49;;;;;;;;;;;;;;;;;;5092972;28;801;-70
2023/04/01 00:12:14;;;;;;;;;;;;;;;;;;5093607;28;876;-70
2023/04/01 00:14:39;;;;;;;;;;;;;;;;;;5093488;28;931;-70
2023/04/01 00:17:05;;;;;;;;;;;;;;;;;;5093043;28;809;-70
2023/04/01 00:19:31;;;;;;;;;;;;;;;;;;5093296;28;816;-70
2023/04/01 00:21:57;;;;;;;;;;;;;;;;;;5108149;28;1949;-71
2023/04/01 00:24:22;;;;;;;;;;;;;;;;;;5108276;28;800;-71
2023/04/01 00:26:48;;;;;;;;;;;;;;;;;;5093391;28;832;-71
2023/04/01 00:29:14;;;;;;;;;;;;;;;;;;5095852;28;1400;-70
2023/04/01 00:31:39;;;;;;;;;;;;;;;;;;5097170;28;1330;-70
2023/04/01 00:34:05;;;;;;;;;;;;;;;;;;5096249;28;1334;-72
2023/04/01 00:36:30;;;;;;;;;;;;;;;;;;5097417;28;887;-71
2023/04/01 00:38:57;;;;;;;;;;;;;;;;;;5113260;28;971;-71
2023/04/01 00:41:23;;;;;;;;;;;;;;;;;;5098273;28;1953;-72
2023/04/01 00:43:49;;;;;;;;;;;;;;;;;;5098393;28;1221;-72
2023/04/01 00:46:18;;;;;;;;;;;;;;;;;;5098074;28;1025;-71
2023/04/01 00:48:52;;;;;;;;;;;;;;;;;;5098507;28;940;-71
2023/04/01 00:51:21;;;;;;;;;;;;;;;;;;5097717;28;824;-71
2023/04/01 00:53:48;;;;;;;;;;;;;;;;;;5097497;28;895;-71
2023/04/01 00:56:15;;;;;;;;;;;;;;;;;;5096103;28;1205;-72
2023/04/01 00:58:43;;;;;;;;;;;;;;;;;;5096462;28;1194;-71
2023/04/01 01:01:09;;;;;;;;;;;;;;;;;;5104903;28;1254;-71
2023/04/01 01:03:34;;;;;;;;;;;;;;;;;;5082755;28;1349;-71
2023/04/01 01:06:08;;;;;;;;;;;;;;;;;;5099338;28;1254;-72
2023/04/01 01:08:43;;;;;;;;;;;;;;;;;;5115634;28;1313;-71
2023/04/01 01:11:11;;;;;;;;;;;;;;;;;;5098427;28;781;-72
2023/04/01 01:13:42;;;;;;;;;;;;;;;;;;5116698;28;907;-71
2023/04/01 01:16:18;;;;;;;;;;;;;;;;;;5116860;28;876;-71
2023/04/01 01:18:49;;;;;;;;;;;;;;;;;;5116836;28;880;-73
2023/04/01 01:21:33;;;;;;;;;;;;;;;;;;5116663;28;1913;-72
2023/04/01 01:24:17;;;;;;;;;;;;;;;;;;5098543;28;1187;-71
2023/04/01 01:26:53;;;;;;;;;;;;;;;;;;5098432;28;1267;-71
2023/04/01 01:29:27;;;;;;;;;;;;;;;;;;5117055;28;855;-72
2023/04/01 01:31:58;;;;;;;;;;;;;;;;;;5097966;28;1281;-71
2023/04/01 01:34:32;;;;;;;;;;;;;;;;;;5116963;28;944;-71
2023/04/01 01:37:00;;;;;;;;;;;;;;;;;;5098663;28;1322;-72
2023/04/01 01:39:29;;;;;;;;;;;;;;;;;;5116398;28;928;-71
2023/04/01 01:42:00;;;;;;;;;;;;;;;;;;5098051;28;1902;-72
2023/04/01 01:44:26;;;;;;;;;;;;;;;;;;5116196;28;932;-72
2023/04/01 01:46:51;;;;;;;;;;;;;;;;;;5097765;28;1245;-72
2023/04/01 01:49:18;;;;;;;;;;;;;;;;;;5081081;28;1368;-71
2023/04/01 01:51:44;;;;;;;;;;;;;;;;;;5098189;28;1198;-71
2023/04/01 01:54:16;;;;;;;;;;;;;;;;;;5097544;28;845;-71
2023/04/01 01:56:44;;;;;;;;;;;;;;;;;;5097084;28;1155;-71
2023/04/01 01:59:11;;;;;;;;;;;;;;;;;;5097011;28;1388;-71
2023/04/01 02:01:39;;;;;;;;;;;;;;;;;;5093527;28;1948;-71
2023/04/01 02:04:04;;;;;;;;;;;;;;;;;;5094928;28;1091;-71
2023/04/01 02:06:32;;;;;;;;;;;;;;;;;;5111123;28;1368;-72
2023/04/01 02:09:00;;;;;;;;;;;;;;;;;;5094880;28;934;-72
2023/04/01 02:11:28;;;;;;;;;;;;;;;;;;5095066;28;856;-71
2023/04/01 02:14:01;;;;;;;;;;;;;;;;;;5093349;28;1345;-71
2023/04/01 02:16:40;;;;;;;;;;;;;;;;;;5093476;28;1173;-72
2023/04/01 02:19:07;;;;;;;;;;;;;;;;;;5093210;28;1183;-71
2023/04/01 02:21:33;;;;;;;;;;;;;;;;;;5095635;28;1993;-71
2023/04/01 02:24:00;;;;;;;;;;;;;;;;;;5093029;28;1337;-70
2023/04/01 02:26:26;;;;;;;;;;;;;;;;;;5095036;28;994;-70
2023/04/01 02:28:52;;;;;;;;;;;;;;;;;;5093522;28;1151;-72
2023/04/01 02:31:18;;;;;;;;;;;;;;;;;;5093087;28;1199;-72
2023/04/01 02:33:44;;;;;;;;;;;;;;;;;;5094452;28;840;-72
2023/04/01 02:36:13;;;;;;;;;;;;;;;;;;5094331;28;829;-71
2023/04/01 02:38:39;;;;;;;;;;;;;;;;;;5110324;28;923;-71
2023/04/01 02:41:06;;;;;;;;;;;;;;;;;;5094305;28;883;-72
2023/04/01 02:43:31;;;;;;;;;;;;;;;;;;5094537;28;1958;-72
2023/04/01 02:45:56;;;;;;;;;;;;;;;;;;5110397;28;999;-72
2023/04/01 02:48:21;;;;;;;;;;;;;;;;;;5092832;28;1138;-71
2023/04/01 02:50:47;;;;;;;;;;;;;;;;;;5092452;28;1328;-71
2023/04/01 02:53:12;;;;;;;;;;;;;;;;;;5094382;28;762;-71
2023/04/01 02:55:38;;;;;;;;;;;;;;;;;;5094630;28;967;-72
2023/04/01 02:58:03;;;;;;;;;;;;;;;;;;5094648;28;998;-71
2023/04/01 03:00:29;;;;;;;;;;;;;;;;;;5093077;28;1226;-71
2023/04/01 03:02:54;;;;;;;;;;;;;;;;;;5092526;28;1949;-71
2023/04/01 03:05:20;;;;;;;;;;;;;;;;;;5110152;28;833;-71
2023/04/01 03:07:45;;;;;;;;;;;;;;;;;;5092844;28;1238;-71
2023/04/01 03:10:10;;;;;;;;;;;;;;;;;;5092969;28;1337;-70
2023/04/01 03:12:36;;;;;;;;;;;;;;;;;;5094716;28;828;-72
2023/04/01 03:15:01;;;;;;;;;;;;;;;;;;5094005;28;963;-71
2023/04/01 03:17:26;;;;;;;;;;;;;;;;;;5093423;28;1139;-71
2023/04/01 03:19:52;;;;;;;;;;;;;;;;;;5092460;28;1174;-70
2023/04/01 03:22:20;;;;;;;;;;;;;;;;;;5092729;28;1979;-71
2023/04/01 03:24:45;;;;;;;;;;;;;;;;;;5094636;28;812;-71
2023/04/01 03:27:11;;;;;;;;;;;;;;;;;;5093748;28;829;-70
2023/04/01 03:29:36;;;;;;;;;;;;;;;;;;5093685;28;832;-71
2023/04/01 03:32:01;;;;;;;;;;;;;;;;;;5093496;28;868;-70
2023/04/01 03:34:27;;;;;;;;;;;;;;;;;;5109205;28;911;-71
2023/04/01 03:36:52;;;;;;;;;;;;;;;;;;5108912;28;919;-71
2023/04/01 03:39:20;;;;;;;;;;;;;;;;;;5091849;28;1231;-71
2023/04/01 03:41:46;;;;;;;;;;;;;;;;;;5092116;28;1906;-71
2023/04/01 03:44:11;;;;;;;;;;;;;;;;;;5092010;28;1183;-71
2023/04/01 03:46:37;;;;;;;;;;;;;;;;;;5092118;28;1286;-71
2023/04/01 03:49:02;;;;;;;;;;;;;;;;;;5092987;28;840;-71
2023/04/01 03:51:28;;;;;;;;;;;;;;;;;;5092827;28;899;-71
2023/04/01 03:53:53;;;;;;;;;;;;;;;;;;5092969;28;871;-71
2023/04/01 03:56:18;;;;;;;;;;;;;;;;;;5092812;28;995;-72
2023/04/01 03:58:44;;;;;;;;;;;;;;;;;;5093173;28;872;-70
2023/04/01 04:01:23;;;;;;;;;;;;;;;;;;5093281;28;811;-71
2023/04/01 04:03:49;;;;;;;;;;;;;;;;;;5111487;28;1167;-71
2023/04/01 04:06:15;;;;;;;;;;;;;;;;;;5113379;28;933;-70
2023/04/01 04:08:40;;;;;;;;;;;;;;;;;;5113915;28;962;-71
2023/04/01 04:11:06;;;;;;;;;;;;;;;;;;5113338;28;943;-70
2023/04/01 04:13:31;;;;;;;;;;;;;;;;;;5078411;28;1308;-71
2023/04/01 04:15:57;;;;;;;;;;;;;;;;;;5061305;28;1326;-71
2023/04/01 04:18:23;;;;;;;;;;;;;;;;;;5087725;28;1180;-71
2023/04/01 04:20:49;;;;;;;;;;;;;;;;;;5091634;28;1196;-71
2023/04/01 04:23:15;;;;;;;;;;;;;;;;;;5082007;28;1926;-71
2023/04/01 04:25:40;;;;;;;;;;;;;;;;;;5077098;28;1153;-71
2023/04/01 04:28:05;;;;;;;;;;;;;;;;;;5071661;28;1232;-71
2023/04/01 04:30:31;;;;;;;;;;;;;;;;;;5113393;28;832;-70
2023/04/01 04:32:56;;;;;;;;;;;;;;;;;;5113511;28;970;-71
2023/04/01 04:35:21;;;;;;;;;;;;;;;;;;5094775;28;1167;-70
2023/04/01 04:37:47;;;;;;;;;;;;;;;;;;5078390;28;1130;-71
2023/04/01 04:40:13;;;;;;;;;;;;;;;;;;5113424;28;844;-71
2023/04/01 04:42:38;;;;;;;;;;;;;;;;;;5113377;28;1937;-71
2023/04/01 04:45:03;;;;;;;;;;;;;;;;;;5078230;28;1371;-71
2023/04/01 04:47:28;;;;;;;;;;;;;;;;;;5095610;28;983;-71
2023/04/01 04:49:54;;;;;;;;;;;;;;;;;;5095561;28;1006;-71
2023/04/01 04:52:19;;;;;;;;;;;;;;;;;;5113435;28;880;-71
2023/04/01 04:54:44;;;;;;;;;;;;;;;;;;5095414;28;1215;-71
2023/04/01 04:57:10;;;;;;;;;;;;;;;;;;5113566;28;992;-71
2023/04/01 04:59:36;;;;;;;;;;;;;;;;;;5078242;28;1225;-72
2023/04/01 05:02:01;;;;;;;;;;;;;;;;;;5092123;28;1953;-71
2023/04/01 05:04:27;;;;;;;;;;;;;;;;;;5094554;28;1100;-71
2023/04/01 05:06:52;;;;;;;;;;;;;;;;;;5094619;28;1068;-71
2023/04/01 05:09:17;;;;;;;;;;;;;;;;;;5112982;28;824;-71
2023/04/01 05:11:42;;;;;;;;;;;;;;;;;;5094548;28;955;-72
2023/04/01 05:14:12;;;;;;;;;;;;;;;;;;5078304;28;1332;-72
2023/04/01 05:16:38;;;;;;;;;;;;;;;;;;5097605;28;1051;-71
2023/04/01 05:19:03;;;;;;;;;;;;;;;;;;5097909;28;900;-70
2023/04/01 05:21:28;;;;;;;;;;;;;;;;;;5116139;28;1907;-71
2023/04/01 05:23:53;;;;;;;;;;;;;;;;;;5097892;28;1222;-70
2023/04/01 05:26:19;;;;;;;;;;;;;;;;;;5081062;28;1182;-70
2023/04/01 05:28:44;;;;;;;;;;;;;;;;;;5098413;28;1444;-70
2023/04/01 05:31:09;;;;;;;;;;;;;;;;;;5116626;28;856;-71
2023/04/01 05:33:35;;;;;;;;;;;;;;;;;;5097634;28;1376;-71
2023/04/01 05:36:11;;;;;;;;;;;;;;;;;;5098074;28;904;-70
2023/04/01 05:38:36;;;;;;;;;;;;;;;;;;5116330;28;864;-70
2023/04/01 05:41:02;;;;;;;;;;;;;;;;;;5117699;28;891;-71
2023/04/01 05:43:27;;;;;;;;;;;;;;;;;;5116125;28;1972;-71
2023/04/01 05:45:53;;;;;;;;;;;;;;;;;;5097819;28;1003;-70
2023/04/01 05:48:18;;;;;;;;;;;;;;;;;;5099247;28;1305;-71
2023/04/01 05:50:44;;;;;;;;;;;;;;;;;;5099231;28;884;-71
2023/04/01 05:53:09;;;;;;;;;;;;;;;;;;5082305;28;1273;-70
2023/04/01 05:55:35;;;;;;;;;;;;;;;;;;5094123;28;1381;-70
2023/04/01 05:58:01;;;;;;;;;;;;;;;;;;5112860;28;1164;-71
2023/04/01 06:00:26;;;;;;;;;;;;;;;;;;5095158;28;1164;-71
2023/04/01 06:02:52;;;;;;;;;;;;;;;;;;5112479;28;1968;-71
2023/04/01 06:05:22;;;;;;;;;;;;;;;;;;5097692;28;871;-71
2023/04/01 06:07:47;;;;;;;;;;;;;;;;;;5116071;28;859;-72
2023/04/01 06:10:14;;;;;;;;;;;;;;;;;;5115918;28;906;-71
2023/04/01 06:12:55;;;;;;;;;;;;;;;;;;5097603;28;1452;-71
2023/04/01 06:15:30;;;;;;;;;;;;;;;;;;5115765;28;894;-71
2023/04/01 06:17:56;;;;;;;;;;;;;;;;;;5115869;28;985;-72
2023/04/01 06:20:21;;;;;;;;;;;;;;;;;;5097368;28;1361;-71
2023/04/01 06:23:13;;;;;;;;;;;;;;;;;;5097168;28;1978;-71
2023/04/01 06:25:44;;;;;;;;;;;;;;;;;;5091844;28;1381;-71
2023/04/01 06:28:23;;;;;;;;;;;;;;;;;;5115905;28;875;-72
2023/04/01 06:31:03;;;;;;;;;;;;;;;;;;5115530;28;903;-67
2023/04/01 06:33:32;;;;;;;;;;;;;;;;;;5115052;28;935;-67
2023/04/01 06:35:57;;;;;;;;;;;;;;;;;;5114857;28;879;-67
2023/04/01 06:38:52;;;;;;;;;;;;;;;;;;5096523;28;1302;-67
2023/04/01 06:41:36;;;;;;;;;;;;;;;;;;5007809;28;1200;-67
2023/04/01 06:44:17;;;;;;;;;;;;;;;;;;5115027;28;923;-66
2023/04/01 06:46:46;;;;;;;;;;;;;;;;;;5113234;28;1768;-66
2023/04/01 06:49:32;;;;;;;;;;;;;;;;;;5114811;28;876;-66
2023/04/01 06:52:04;;;;;;;;;;;;;;;;;;5115280;28;1062;-65
2023/04/01 06:54:35;;;;;;;;;;;;;;;;;;5114848;28;852;-66
2023/04/01 06:57:05;;;;;;;;;;;;;;;;;;5113727;28;837;-66
2023/04/01 06:59:32;;;;;;;;;;;;;;;;;;5113477;28;848;-66
2023/04/01 07:02:18;;;;;;;;;;;;;;;;;;5095438;28;1894;-66
2023/04/01 07:04:46;;;;;;;;;;;;;;;;;;5095617;28;1232;-67
2023/04/01 07:07:24;;;;;;;;;;;;;;;;;;5114008;28;868;-66
2023/04/01 07:09:52;;;;;;;;;;;;;;;;;;5114023;28;833;-67
2023/04/01 07:12:23;;;;;;;;;;;;;;;;;;5114023;28;928;-67
2023/04/01 07:14:51;;;;;;;;;;;;;;;;;;5095375;28;1253;-67
2023/04/01 07:17:42;;;;;;;;;;;;;;;;;;5113997;28;817;-72
2023/04/01 07:20:17;;;;;;;;;;;;;;;;;;5091373;28;1350;-72
2023/04/01 07:22:44;;;;;;;;;;;;;;;;;;5114229;28;1983;-71
2023/04/01 07:25:19;;;;;;;;;;;;;;;;;;5096298;28;1285;-72
2023/04/01 07:27:45;;;;;;;;;;;;;;;;;;5114768;28;868;-72
2023/04/01 07:30:17;;;;;;;;;;;;;;;;;;5096489;28;1210;-72
2023/04/01 07:32:47;;;;;;;;;;;;;;;;;;5095748;28;1167;-72
2023/04/01 07:35:15;;;;;;;;;;;;;;;;;;5096423;28;1226;-72
2023/04/01 07:37:43;;;;;;;;;;;;;;;;;;5114514;28;1074;-73
2023/04/01 07:40:08;;;;;;;;;;;;;;;;;;5096141;28;1330;-72
2023/04/01 07:42:43;;;;;;;;;;;;;;;;;;5113601;28;1897;-72
2023/04/01 07:45:08;;;;;;;;;;;;;;;;;;5095952;28;1371;-71
2023/04/01 07:47:43;;;;;;;;;;;;;;;;;;5114252;28;839;-72
2023/04/01 07:50:13;;;;;;;;;;;;;;;;;;5114110;28;888;-72
2023/04/01 07:52:57;;;;;;;;;;;;;;;;;;5094306;28;1281;-72
2023/04/01 07:55:51;;;;;;;;;;;;;;;;;;5112566;28;963;-71
2023/04/01 07:58:23;;;;;;;;;;;;;;;;;;5072210;28;1219;-71
2023/04/01 08:00:48;;;;;;;;;;;;;;;;;;5113289;28;833;-72
2023/04/01 08:03:16;;;;;;;;;;;;;;;;;;5094818;28;1989;-73
2023/04/01 08:06:00;;;;;;;;;;;;;;;;;;5094864;28;1295;-72
2023/04/01 08:08:44;;;;;;;;;;;;;;;;;;5096407;28;1300;-72
2023/04/01 08:11:36;;;;;;;;;;;;;;;;;;5096116;28;1404;-72
2023/04/01 08:14:26;;;;;;;;;;;;;;;;;;5091343;28;1187;-72
2023/04/01 08:17:09;;;;;;;;;;;;;;;;;;5112988;28;1071;-71
2023/04/01 08:19:38;;;;;;;;;;;;;;;;;;5113504;28;1010;-71
2023/04/01 08:22:08;;;;;;;;;;;;;;;;;;5112974;28;1906;-73
2023/04/01 08:24:37;;;;;;;;;;;;;;;;;;5094631;28;1275;-73
2023/04/01 08:27:05;;;;;;;;;;;;;;;;;;5112956;28;895;-73
2023/04/01 08:29:31;;;;;;;;;;;;;;;;;;5095133;28;1158;-74
2023/04/01 08:31:56;;;;;;;;;;;;;;;;;;5112874;28;824;-72
2023/04/01 08:34:24;;;;;;;;;;;;;;;;;;5113317;28;895;-72
2023/04/01 08:37:02;;;;;;;;;;;;;;;;;;5112684;28;816;-72
2023/04/01 08:39:34;;;;;;;;;;;;;;;;;;5094554;28;1245;-71
2023/04/01 08:42:17;;;;;;;;;;;;;;;;;;5094378;28;1906;-71
2023/04/01 08:45:01;;;;;;;;;;;;;;;;;;5112741;28;904;-71
2023/04/01 08:47:27;;;;;;;;;;;;;;;;;;5094447;28;1159;-72
2023/04/01 08:49:55;;;;;;;;;;;;;;;;;;5114424;28;880;-72
2023/04/01 08:52:23;;;;;;;;;;;;;;;;;;5116734;28;824;-72
2023/04/01 08:54:55;;;;;;;;;;;;;;;;;;5098689;28;1365;-72
2023/04/01 08:57:29;;;;;;;;;;;;;;;;;;5117191;28;872;-72
2023/04/01 09:00:05;;;;;;;;;;;;;;;;;;5116609;28;876;-72
2023/04/01 09:02:49;;;;;;;;;;;;;;;;;;5096392;28;1909;-72
2023/04/01 09:05:24;;;;;;;;;;;;;;;;;;5091632;28;1199;-73
2023/04/01 09:08:01;;;;;;;;;;;;;;;;;;5117063;28;887;-72
2023/04/01 09:10:52;;;;;;;;;;;;;;;;;;5116790;28;903;-72
2023/04/01 09:13:27;;;;;;;;;;;;;;;;;;5117006;28;950;-72
2023/04/01 09:16:11;;;;;;;;;;;;;;;;;;5098866;28;1178;-71
2023/04/01 09:18:56;;;;;;;;;;;;;;;;;;5098891;28;1447;-67
2023/04/01 09:21:24;;;;;;;;;;;;;;;;;;5097756;28;1276;-67
2023/04/01 09:24:09;;;;;;;;;;;;;;;;;;5097747;28;1975;-67
2023/04/01 09:26:53;;;;;;;;;;;;;;;;;;5098543;28;1078;-67
2023/04/01 09:29:21;;;;;;;;;;;;;;;;;;5116343;28;883;-67
2023/04/01 09:32:05;;;;;;;;;;;;;;;;;;5115946;28;931;-67
2023/04/01 09:34:40;;;;;;;;;;;;;;;;;;5097807;28;1210;-67
2023/04/01 09:37:24;;;;;;;;;;;;;;;;;;5098406;28;1265;-67
2023/04/01 09:39:49;;;;;;;;;;;;;;;;;;5098386;28;1100;-67
2023/04/01 09:42:15;;;;;;;;;;;;;;;;;;5116560;28;1890;-67
2023/04/01 09:44:48;;;;;;;;;;;;;;;;;;5116386;28;882;-66
2023/04/01 09:47:23;;;;;;;;;;;;;;;;;;5098127;28;1153;-67
2023/04/01 09:50:07;;;;;;;;;;;;;;;;;;5097852;28;1175;-66
2023/04/01 09:52:38;;;;;;;;;;;;;;;;;;5098135;28;1258;-67
2023/04/01 09:55:03;;;;;;;;;;;;;;;;;;5115902;28;962;-67
2023/04/01 09:57:44;;;;;;;;;;;;;;;;;;5115809;28;911;-67
2023/04/01 10:00:28;;;;;;;;;;;;;;;;;;5097530;28;1186;-68
2023/04/01 10:02:56;;;;;;;;;;;;;;;;;;5096627;28;1953;-67
2023/04/01 10:05:22;;;;;;;;;;;;;;;;;;5096868;28;1514;-68
2023/04/01 10:08:07;;;;;;;;;;;;;;;;;;5097003;28;1210;-68
2023/04/01 10:10:46;;;;;;;;;;;;;;;;;;5097165;28;1513;-67
2023/04/01 10:13:30;;;;;;;;;;;;;;;;;;5097327;28;1331;-67
2023/04/01 10:16:16;;;;;;;;;;;;;;;;;;5097009;28;1112;-67
2023/04/01 10:18:56;;;;;;;;;;;;;;;;;;5113927;28;1065;-67
2023/04/01 10:21:42;;;;;;;;;;;;;;;;;;5096461;28;1175;-67
2023/04/01 10:24:10;;;;;;;;;;;;;;;;;;5115202;28;848;-68
2023/04/01 10:26:54;;;;;;;;;;;;;;;;;;5115139;28;891;-67
2023/04/01 10:29:34;;;;;;;;;;;;;;;;;;5114777;28;899;-67
2023/04/01 10:32:29;;;;;;;;;;;;;;;;;;5096270;28;1248;-68
2023/04/01 10:35:01;;;;;;;;;;;;;;;;;;5096567;28;1109;-68
2023/04/01 10:37:32;;;;;;;;;;;;;;;;;;5114721;28;892;-68
2023/04/01 10:40:13;;;;;;;;;;;;;;;;;;5096642;28;1298;-67
2023/04/01 10:42:47;;;;;;;;;;;;;;;;;;5115586;28;1902;-66
2023/04/01 10:45:27;;;;;;;;;;;;;;;;;;5114714;28;987;-66
2023/04/01 10:47:53;;;;;;;;;;;;;;;;;;5096539;28;1206;-67
2023/04/01 10:50:37;;;;;;;;;;;;;;;;;;5096565;28;1249;-68
2023/04/01 10:53:21;;;;;;;;;;;;;;;;;;5114617;28;994;-68
2023/04/01 10:55:49;;;;;;;;;;;;;;;;;;5096786;28;1135;-67
2023/04/01 10:58:23;;;;;;;;;;;;;;;;;;5114746;28;1077;-67
2023/04/01 11:00:49;;;;;;;;;;;;;;;;;;5114390;28;903;-67
2023/04/01 11:03:34;;;;;;;;;;;;;;;;;;5096389;28;1926;-68
2023/04/01 11:06:17;;;;;;;;;;;;;;;;;;5092506;28;1505;-67
2023/04/01 11:09:01;;;;;;;;;;;;;;;;;;5093970;28;880;-67
2023/04/01 11:11:45;;;;;;;;;;;;;;;;;;5092738;28;1188;-68
2023/04/01 11:14:28;;;;;;;;;;;;;;;;;;5093943;28;849;-70
2023/04/01 11:16:54;;;;;;;;;;;;;;;;;;5093286;28;1027;-67
2023/04/01 11:19:54;;;;;;;;;;;;;;;;;;5092433;28;1199;-67
2023/04/01 11:22:38;;;;;;;;;;;;;;;;;;5027696;28;1963;-67
2023/04/01 11:25:16;;;;;;;;;;;;;;;;;;5068808;28;1131;-67
2023/04/01 11:27:53;;;;;;;;;;;;;;;;;;5073174;28;789;-67
2023/04/01 11:30:31;;;;;;;;;;;;;;;;;;5071612;28;1172;-67
2023/04/01 11:32:57;;;;;;;;;;;;;;;;;;5072515;28;950;-68
2023/04/01 11:35:41;;;;;;;;;;;;;;;;;;5072518;28;844;-67
2023/04/01 11:38:30;;;;;;;;;;;;;;;;;;5072503;28;935;-67
2023/04/01 11:41:13;;;;;;;;;;;;;;;;;;5010555;28;1086;-68
2023/04/01 11:43:38;;;;;;;;;;;;;;;;;;5072593;28;1885;-67
2023/04/01 11:46:11;;;;;;;;;;;;;;;;;;5072381;28;1001;-68
2023/04/01 11:48:39;;;;;;;;;;;;;;;;;;5072612;28;880;-67
2023/04/01 11:51:14;;;;;;;;;;;;;;;;;;5071303;28;1234;-67
2023/04/01 11:53:39;;;;;;;;;;;;;;;;;;5071930;28;1535;-67
2023/04/01 11:56:11;;;;;;;;;;;;;;;;;;5071156;28;1231;-67
2023/04/01 11:58:36;;;;;;;;;;;;;;;;;;5071132;28;1184;-67
2023/04/01 12:01:20;;;;;;;;;;;;;;;;;;5072467;28;958;-67
2023/04/01 12:03:56;;;;;;;;;;;;;;;;;;5071027;28;1976;-67
2023/04/01 12:06:25;;;;;;;;;;;;;;;;;;5072444;28;1159;-68
2023/04/01 12:09:09;;;;;;;;;;;;;;;;;;5072916;28;869;-67
2023/04/01 12:11:53;;;;;;;;;;;;;;;;;;5072626;28;841;-66
2023/04/01 12:14:27;;;;;;;;;;;;;;;;;;5072306;28;868;-67
2023/04/01 12:16:59;;;;;;;;;;;;;;;;;;5054654;28;1196;-67
2023/04/01 12:19:51;;;;;;;;;;;;;;;;;;5054452;28;1306;-66
2023/04/01 12:22:35;;;;;;;;;;;;;;;;;;5067792;28;1980;-66
2023/04/01 12:25:19;;;;;;;;;;;;;;;;;;5074693;28;975;-66
2023/04/01 12:27:50;;;;;;;;;;;;;;;;;;5058878;28;1251;-65
2023/04/01 12:30:31;;;;;;;;;;;;;;;;;;5057516;28;1178;-66
2023/04/01 12:33:06;;;;;;;;;;;;;;;;;;5059688;28;1529;-67
2023/04/01 12:35:43;;;;;;;;;;;;;;;;;;5076814;28;1063;-66
2023/04/01 12:38:32;;;;;;;;;;;;;;;;;;5058835;28;1302;-66
2023/04/01 12:41:06;;;;;;;;;;;;;;;;;;5065914;28;1100;-72
2023/04/01 12:43:50;;;;;;;;;;;;;;;;;;5076785;28;1905;-72
2023/04/01 12:46:44;;;;;;;;;;;;;;;;;;5059074;28;1325;-73
2023/04/01 12:49:31;;;;;;;;;;;;;;;;;;4988097;28;1224;-72
2023/04/01 12:52:08;;;;;;;;;;;;;;;;;;5042837;28;1204;-73
2023/04/01 12:54:57;;;;;;;;;;;;;;;;;;5060371;28;1264;-73
2023/04/01 12:57:28;;;;;;;;;;;;;;;;;;5038547;28;1175;-73
2023/04/01 12:59:57;;;;;;;;;;;;;;;;;;5058505;28;1219;-73
2023/04/01 13:02:37;;;;;;;;;;;;;;;;;;5058086;28;1959;-72
2023/04/01 13:05:21;;;;;;;;;;;;;;;;;;5057540;28;1198;-71
2023/04/01 13:07:47;;;;;;;;;;;;;;;;;;5074710;28;1330;-72
2023/04/01 13:10:18;;;;;;;;;;;;;;;;;;5074258;28;1207;-72
2023/04/01 13:13:02;;;;;;;;;;;;;;;;;;5074290;28;1195;-73
2023/04/01 13:15:28;;;;;;;;;;;;;;;;;;5074619;28;1460;-71
2023/04/01 13:18:11;;;;;;;;;;;;;;;;;;5075754;28;832;-71
2023/04/01 13:20:43;;;;;;;;;;;;;;;;;;5075602;28;863;-71
2023/04/01 13:23:31;;;;;;;;;;;;;;;;;;5075429;28;1906;-72
2023/04/01 13:26:08;;;;;;;;;;;;;;;;;;5057911;28;1299;-71
2023/04/01 13:28:40;;;;;;;;;;;;;;;;;;5074619;28;1259;-71
2023/04/01 13:31:05;;;;;;;;;;;;;;;;;;5075251;28;840;-71
2023/04/01 13:33:46;;;;;;;;;;;;;;;;;;5074287;28;1219;-71
2023/04/01 13:36:17;;;;;;;;;;;;;;;;;;5074278;28;1245;-71
2023/04/01 13:38:49;;;;;;;;;;;;;;;;;;5076095;28;984;-71
2023/04/01 13:41:22;;;;;;;;;;;;;;;;;;5074077;28;1203;-71
2023/04/01 13:44:02;;;;;;;;;;;;;;;;;;5076085;28;1906;-71
2023/04/01 13:46:27;;;;;;;;;;;;;;;;;;5075321;28;1380;-71
2023/04/01 13:48:52;;;;;;;;;;;;;;;;;;5075383;28;889;-72
2023/04/01 13:51:53;;;;;;;;;;;;;;;;;;5057436;28;1215;-71
2023/04/01 13:54:21;;;;;;;;;;;;;;;;;;5012906;28;1238;-72
2023/04/01 13:57:05;;;;;;;;;;;;;;;;;;5046389;28;902;-71
2023/04/01 13:59:49;;;;;;;;;;;;;;;;;;5047427;28;1248;-72
2023/04/01 14:02:33;;;;;;;;;;;;;;;;;;5056621;28;1959;-71
2023/04/01 14:05:09;;;;;;;;;;;;;;;;;;5074185;28;1339;-72
2023/04/01 14:07:34;;;;;;;;;;;;;;;;;;5075767;28;837;-72
2023/04/01 14:10:12;;;;;;;;;;;;;;;;;;5074485;28;1340;-71
2023/04/01 14:12:47;;;;;;;;;;;;;;;;;;5076119;28;828;-72
2023/04/01 14:15:24;;;;;;;;;;;;;;;;;;5075257;28;1046;-72
2023/04/01 14:18:10;;;;;;;;;;;;;;;;;;5076039;28;900;-72
2023/04/01 14:20:36;;;;;;;;;;;;;;;;;;5064336;28;1318;-71
2023/04/01 14:23:04;;;;;;;;;;;;;;;;;;5073968;28;1909;-72
2023/04/01 14:25:45;;;;;;;;;;;;;;;;;;5073953;28;1475;-71
2023/04/01 14:28:29;;;;;;;;;;;;;;;;;;5058206;28;1135;-72
2023/04/01 14:31:15;;;;;;;;;;;;;;;;;;5073907;28;1199;-72
2023/04/01 14:33:47;;;;;;;;;;;;;;;;;;5075100;28;900;-72
2023/04/01 14:36:27;;;;;;;;;;;;;;;;;;5074799;28;1067;-72
2023/04/01 14:39:08;;;;;;;;;;;;;;;;;;5074502;28;872;-72
2023/04/01 14:41:58;;;;;;;;;;;;;;;;;;5074911;28;770;-72
2023/04/01 14:44:23;;;;;;;;;;;;;;;;;;5074693;28;912;-71
2023/04/01 14:47:07;;;;;;;;;;;;;;;;;;5072762;28;1251;-72
2023/04/01 14:49:35;;;;;;;;;;;;;;;;;;5073335;28;1319;-73
2023/04/01 14:52:09;;;;;;;;;;;;;;;;;;5057052;28;1343;-71
2023/04/01 14:54:38;;;;;;;;;;;;;;;;;;5074380;28;832;-72
2023/04/01 14:57:23;;;;;;;;;;;;;;;;;;5056583;28;1306;-72
2023/04/01 15:00:04;;;;;;;;;;;;;;;;;;5056719;28;1220;-72
2023/04/01 15:02:41;;;;;;;;;;;;;;;;;;5074139;28;1954;-72
2023/04/01 15:05:06;;;;;;;;;;;;;;;;;;5073813;28;1084;-72
2023/04/01 15:07:41;;;;;;;;;;;;;;;;;;5056164;28;1314;-71
2023/04/01 15:10:19;;;;;;;;;;;;;;;;;;5056103;28;1469;-72
2023/04/01 15:12:59;;;;;;;;;;;;;;;;;;5056426;28;1296;-72
2023/04/01 15:15:43;;;;;;;;;;;;;;;;;;5056050;28;1458;-72
2023/04/01 15:18:10;;;;;;;;;;;;;;;;;;5056311;28;1236;-74
2023/04/01 15:20:55;;;;;;;;;;;;;;;;;;5073854;28;884;-73
2023/04/01 15:23:26;;;;;;;;;;;;;;;;;;5071016;28;1913;-72
2023/04/01 15:26:09;;;;;;;;;;;;;;;;;;5035723;28;1204;-72
2023/04/01 15:28:41;;;;;;;;;;;;;;;;;;5035442;28;1445;-71
2023/04/01 15:31:12;;;;;;;;;;;;;;;;;;5035552;28;1396;-70
2023/04/01 15:33:47;;;;;;;;;;;;;;;;;;5035633;28;1177;-71
2023/04/01 15:36:18;;;;;;;;;;;;;;;;;;5053538;28;1003;-71
2023/04/01 15:38:48;;;;;;;;;;;;;;;;;;5053456;28;888;-72
2023/04/01 15:41:16;;;;;;;;;;;;;;;;;;5053933;28;806;-71
2023/04/01 15:43:43;;;;;;;;;;;;;;;;;;5035786;28;1883;-71
2023/04/01 15:46:15;;;;;;;;;;;;;;;;;;5036142;28;1398;-71
2023/04/01 15:48:59;;;;;;;;;;;;;;;;;;5053686;28;961;-71
2023/04/01 15:51:24;;;;;;;;;;;;;;;;;;5035399;28;1298;-71
2023/04/01 15:53:53;;;;;;;;;;;;;;;;;;5054124;28;927;-65
2023/04/01 15:56:39;;;;;;;;;;;;;;;;;;5036026;28;1256;-66
2023/04/01 15:59:12;;;;;;;;;;;;;;;;;;5053407;28;868;-66
2023/04/01 16:01:58;;;;;;;;;;;;;;;;;;5053436;28;1035;-66
2023/04/01 16:04:35;;;;;;;;;;;;;;;;;;5035160;28;1240;-66
2023/04/01 16:07:17;;;;;;;;;;;;;;;;;;5055432;28;1342;-66
2023/04/01 16:09:52;;;;;;;;;;;;;;;;;;5073072;28;840;-66
2023/04/01 16:12:41;;;;;;;;;;;;;;;;;;5055511;28;1235;-66
2023/04/01 16:15:23;;;;;;;;;;;;;;;;;;5055232;28;1404;-66
2023/04/01 16:18:07;;;;;;;;;;;;;;;;;;5054406;28;1238;-66
2023/04/01 16:20:35;;;;;;;;;;;;;;;;;;5073000;28;876;-66
2023/04/01 16:23:19;;;;;;;;;;;;;;;;;;5054760;28;1902;-66
2023/04/01 16:26:07;;;;;;;;;;;;;;;;;;5072663;28;870;-66
2023/04/01 16:28:51;;;;;;;;;;;;;;;;;;5073084;28;896;-66
2023/04/01 16:31:31;;;;;;;;;;;;;;;;;;5075699;28;817;-65
2023/04/01 16:34:20;;;;;;;;;;;;;;;;;;5074454;28;865;-66
2023/04/01 16:36:48;;;;;;;;;;;;;;;;;;5051516;28;1256;-66
2023/04/01 16:39:26;;;;;;;;;;;;;;;;;;5072796;28;1139;-65
2023/04/01 16:41:57;;;;;;;;;;;;;;;;;;5054520;28;1957;-66
2023/04/01 16:44:24;;;;;;;;;;;;;;;;;;5072558;28;1078;-66
2023/04/01 16:46:54;;;;;;;;;;;;;;;;;;5072417;28;1297;-67
2023/04/01 16:49:34;;;;;;;;;;;;;;;;;;5072505;28;817;-66
2023/04/01 16:52:12;;;;;;;;;;;;;;;;;;5072913;28;829;-70
2023/04/01 16:55:13;;;;;;;;;;;;;;;;;;5054191;28;1218;-71
2023/04/01 16:58:11;;;;;;;;;;;;;;;;;;5029882;28;1363;-71
2023/04/01 17:00:37;;;;;;;;;;;;;;;;;;5028002;28;1306;-71
2023/04/01 17:03:22;;;;;;;;;;;;;;;;;;5072788;28;1963;-71
2023/04/01 17:05:47;;;;;;;;;;;;;;;;;;5071950;28;1073;-70
2023/04/01 17:08:12;;;;;;;;;;;;;;;;;;5053993;28;1199;-71
2023/04/01 17:10:47;;;;;;;;;;;;;;;;;;5055812;28;1310;-71
2023/04/01 17:13:24;;;;;;;;;;;;;;;;;;5076365;28;864;-72
2023/04/01 17:15:58;;;;;;;;;;;;;;;;;;5057859;28;1226;-72
2023/04/01 17:18:42;;;;;;;;;;;;;;;;;;5058299;28;1235;-71
2023/04/01 17:21:10;;;;;;;;;;;;;;;;;;5074804;28;1327;-71
2023/04/01 17:23:39;;;;;;;;;;;;;;;;;;5057677;28;1906;-71
2023/04/01 17:26:21;;;;;;;;;;;;;;;;;;5058126;28;1216;-71
2023/04/01 17:28:50;;;;;;;;;;;;;;;;;;5058324;28;1295;-71
2023/04/01 17:31:18;;;;;;;;;;;;;;;;;;5058612;28;1345;-71
2023/04/01 17:33:52;;;;;;;;;;;;;;;;;;5058406;28;1311;-71
2023/04/01 17:36:26;;;;;;;;;;;;;;;;;;5076715;28;904;-71
2023/04/01 17:39:10;;;;;;;;;;;;;;;;;;5076218;28;933;-70
2023/04/01 17:41:42;;;;;;;;;;;;;;;;;;5074709;28;1250;-72
2023/04/01 17:44:38;;;;;;;;;;;;;;;;;;5058252;28;1984;-72
2023/04/01 17:47:12;;;;;;;;;;;;;;;;;;5075631;28;1201;-71
2023/04/01 17:49:38;;;;;;;;;;;;;;;;;;5058256;28;1223;-70